createdAt,value
2024-02-08T00:01:06.448Z,67.24
2024-02-08T00:04:15.505Z,67.09
2024-02-08T00:07:37.083Z,67.10
2024-02-08T00:10:40.285Z,67.47
2024-02-08T00:13:44.105Z,66.87
2024-02-08T00:16:53.922Z,67.33
2024-02-08T00:20:00.853Z,66.47
2024-02-08T00:23:04.667Z,67.31
2024-02-08T00:26:12.971Z,67.37
2024-02-08T00:29:33.941Z,67.62
2024-02-08T00:32:58.124Z,67.12
2024-02-08T00:36:16.432Z,67.51
2024-02-08T00:39:34.077Z,67.04
2024-02-08T00:43:06.335Z,67.37
2024-02-08T00:46:26.423Z,67.53
2024-02-08T00:49:47.098Z,67.58
2024-02-08T00:53:11.183Z,67.15
2024-02-08T00:56:28.280Z,67.00
2024-02-08T00:59:49.028Z,66.28
2024-02-08T01:03:16.275Z,66.74
2024-02-08T01:06:39.095Z,66.69
2024-02-08T01:10:03.022Z,66.55
2024-02-08T01:13:23.239Z,66.97
2024-02-08T01:16:34.609Z,67.11
2024-02-08T01:19:51.026Z,67.01
2024-02-08T01:23:26.980Z,66.71
2024-02-08T01:26:48.351Z,66.43
2024-02-08T01:30:08.078Z,66.04
2024-02-08T01:33:35.349Z,66.40
2024-02-08T01:36:55.050Z,65.44
2024-02-08T01:40:24.878Z,65.74
2024-02-08T01:43:38.145Z,65.83
2024-02-08T01:46:54.145Z,66.03
2024-02-08T01:50:21.031Z,65.91
2024-02-08T01:53:43.912Z,65.53
2024-02-08T01:57:05.352Z,65.55
2024-02-08T02:00:28.108Z,65.30
2024-02-08T02:03:55.046Z,65.09
2024-02-08T02:07:10.724Z,65.63
2024-02-08T02:10:33.699Z,65.23
2024-02-08T02:13:49.845Z,65.52
2024-02-08T02:17:11.391Z,65.53
2024-02-08T02:20:20.161Z,65.40
2024-02-08T02:23:25.298Z,65.96
2024-02-08T02:26:36.335Z,65.85
2024-02-08T02:29:46.572Z,66.39
2024-02-08T02:33:11.914Z,66.79
2024-02-08T02:36:47.930Z,67.58
2024-02-08T02:40:15.751Z,67.23
2024-02-08T02:43:40.775Z,68.40
2024-02-08T02:47:05.880Z,68.67
2024-02-08T02:50:22.747Z,69.46
2024-02-08T02:53:45.736Z,70.15
2024-02-08T02:57:06.744Z,69.26
2024-02-08T03:00:22.960Z,69.79
2024-02-08T03:03:43.213Z,69.61
2024-02-08T03:07:05.797Z,69.17
2024-02-08T03:10:37.954Z,69.41
2024-02-08T03:13:50.620Z,68.82
2024-02-08T03:17:14.800Z,68.33
2024-02-08T03:20:32.003Z,67.77
2024-02-08T03:23:53.678Z,67.61
2024-02-08T03:27:26.757Z,68.49
2024-02-08T03:30:50.709Z,68.08
2024-02-08T03:34:16.768Z,67.42
2024-02-08T03:37:37.035Z,67.69
2024-02-08T03:40:55.938Z,67.76
2024-02-08T03:44:20.737Z,67.42
2024-02-08T03:47:34.091Z,67.41
2024-02-08T03:50:59.589Z,67.94
2024-02-08T03:54:20.602Z,68.65
2024-02-08T03:57:37.631Z,70.35
2024-02-08T04:00:58.782Z,69.40
2024-02-08T04:04:23.702Z,69.25
2024-02-08T04:07:58.341Z,71.49
2024-02-08T04:11:05.118Z,71.85
2024-02-08T04:14:45.567Z,71.14
2024-02-08T04:18:25.776Z,70.91
2024-02-08T04:21:49.330Z,70.91
2024-02-08T04:25:17.990Z,69.67
2024-02-08T04:28:45.761Z,69.16
2024-02-08T04:32:08.173Z,68.66
2024-02-08T04:35:44.298Z,68.42
2024-02-08T04:39:19.312Z,68.08
2024-02-08T04:42:52.056Z,68.66
2024-02-08T04:46:14.476Z,68.60
2024-02-08T04:49:38.618Z,68.35
2024-02-08T04:53:01.659Z,68.08
2024-02-08T04:56:10.608Z,68.26
2024-02-08T04:59:21.948Z,67.67
2024-02-08T05:02:28.251Z,67.81
2024-02-08T05:05:51.493Z,68.47
2024-02-08T05:09:27.450Z,68.45
2024-02-08T05:12:50.505Z,68.11
2024-02-08T05:16:06.706Z,68.37
2024-02-08T05:19:31.442Z,68.59
2024-02-08T05:22:52.628Z,67.31
2024-02-08T05:26:22.481Z,66.86
2024-02-08T05:29:45.507Z,66.84
2024-02-08T05:32:48.582Z,66.87
2024-02-08T05:35:57.884Z,66.27
2024-02-08T05:39:05.622Z,65.86
2024-02-08T05:42:24.197Z,65.96
2024-02-08T05:45:39.069Z,66.01
2024-02-08T05:49:06.369Z,65.54
2024-02-08T05:52:25.950Z,64.93
2024-02-08T05:55:50.069Z,64.44
2024-02-08T05:59:07.348Z,65.18
2024-02-08T06:02:26.008Z,64.38
2024-02-08T06:05:33.001Z,64.40
2024-02-08T06:09:02.230Z,65.01
2024-02-08T06:12:46.783Z,65.80
2024-02-08T06:16:22.526Z,67.26
2024-02-08T06:19:35.849Z,68.59
2024-02-08T06:22:49.938Z,69.25
2024-02-08T06:26:13.178Z,69.38
2024-02-08T06:29:50.632Z,69.84
2024-02-08T06:33:12.680Z,69.46
2024-02-08T06:36:25.860Z,69.51
2024-02-08T06:39:46.294Z,68.90
2024-02-08T06:43:16.331Z,69.28
2024-02-08T06:46:49.432Z,68.73
2024-02-08T06:50:25.304Z,68.12
2024-02-08T06:54:02.476Z,68.23
2024-02-08T06:57:29.031Z,67.83
2024-02-08T07:01:14.448Z,67.78
2024-02-08T07:04:48.885Z,66.16
2024-02-08T07:08:19.965Z,65.80
2024-02-08T07:12:03.626Z,65.95
2024-02-08T07:15:45.513Z,65.75
2024-02-08T07:19:16.123Z,65.38
2024-02-08T07:22:59.451Z,65.74
2024-02-08T07:26:49.780Z,65.21
2024-02-08T07:30:17.388Z,65.29
2024-02-08T07:33:47.238Z,65.26
2024-02-08T07:37:12.441Z,64.94
2024-02-08T07:40:24.959Z,64.81
2024-02-08T07:43:36.953Z,64.91
2024-02-08T07:46:57.662Z,64.63
2024-02-08T07:50:29.609Z,64.81
2024-02-08T07:54:14.502Z,64.34
2024-02-08T07:57:36.668Z,64.63
2024-02-08T08:00:45.653Z,64.34
2024-02-08T08:03:58.852Z,64.35
2024-02-08T08:07:30.323Z,63.96
2024-02-08T08:11:05.096Z,63.68
2024-02-08T08:14:44.217Z,63.22
2024-02-08T08:18:03.385Z,63.24
2024-02-08T08:21:27.770Z,63.44
2024-02-08T08:24:58.061Z,62.60
2024-02-08T08:28:31.559Z,62.29
2024-02-08T08:32:03.872Z,61.40
2024-02-08T08:48:35.430Z,60.15
2024-02-08T08:52:08.446Z,59.97
2024-02-08T08:55:53.497Z,59.54
2024-02-08T08:59:06.729Z,58.39
2024-02-08T09:02:38.533Z,58.33
2024-02-08T09:06:02.851Z,58.53
2024-02-08T09:09:29.667Z,59.07
2024-02-08T09:12:41.905Z,59.43
2024-02-08T09:16:18.008Z,59.73
2024-02-08T09:19:29.824Z,58.91
2024-02-08T09:22:41.213Z,58.52
2024-02-08T09:26:09.634Z,59.03
2024-02-08T09:29:45.380Z,58.50
2024-02-08T09:32:54.624Z,57.84
2024-02-08T09:36:29.020Z,58.08
2024-02-08T09:40:27.576Z,57.08
2024-02-08T09:43:50.760Z,56.68
2024-02-08T09:47:13.141Z,57.06
2024-02-08T09:50:52.759Z,56.41
2024-02-08T09:54:33.284Z,56.46
2024-02-08T09:58:14.277Z,55.16
2024-02-08T10:01:44.463Z,54.68
2024-02-08T10:05:06.642Z,53.89
2024-02-08T10:08:42.479Z,52.64
2024-02-08T10:12:01.571Z,51.78
2024-02-08T10:15:17.122Z,52.16
2024-02-08T10:18:54.319Z,51.24
2024-02-08T10:22:30.853Z,50.50
2024-02-08T10:26:04.801Z,50.36
2024-02-08T10:29:17.553Z,49.98
2024-02-08T10:32:38.768Z,50.38
2024-02-08T10:36:04.482Z,50.29
2024-02-08T10:40:09.568Z,50.63
2024-02-08T10:43:48.225Z,49.52
2024-02-08T10:47:11.077Z,48.96
2024-02-08T10:50:39.791Z,49.26
2024-02-08T10:54:17.788Z,49.46
2024-02-08T10:58:02.983Z,48.14
2024-02-08T11:01:41.625Z,48.59
2024-02-08T11:05:39.940Z,49.56
2024-02-08T11:09:21.221Z,49.88
2024-02-08T11:12:56.431Z,49.51
2024-02-08T11:16:26.596Z,49.79
2024-02-08T11:19:58.461Z,50.08
2024-02-08T11:23:43.440Z,49.85
2024-02-08T11:27:17.912Z,50.77
2024-02-08T11:30:44.782Z,50.30
2024-02-08T11:34:32.452Z,48.89
2024-02-08T11:38:07.377Z,48.90
2024-02-08T11:41:34.675Z,47.99
2024-02-08T11:45:11.455Z,47.83
2024-02-08T11:48:49.369Z,48.70
2024-02-08T11:52:09.902Z,47.58
2024-02-08T11:55:38.450Z,48.04
2024-02-08T11:59:28.426Z,47.37
2024-02-08T12:03:05.801Z,48.37
2024-02-08T12:06:35.624Z,46.55
2024-02-08T12:10:21.109Z,45.21
2024-02-08T12:13:48.888Z,44.24
2024-02-08T12:17:03.865Z,43.19
2024-02-08T12:20:33.103Z,42.79
2024-02-08T12:24:05.003Z,43.11
2024-02-08T12:27:38.839Z,43.25
2024-02-08T12:30:55.554Z,43.56
2024-02-08T12:34:07.474Z,43.99
2024-02-08T12:37:19.988Z,44.89
2024-02-08T12:40:35.396Z,43.08
2024-02-08T12:43:48.092Z,44.30
2024-02-08T12:47:08.925Z,44.86
2024-02-08T12:50:29.110Z,44.14
2024-02-08T12:54:04.773Z,44.04
2024-02-08T12:57:28.641Z,43.30
2024-02-08T13:01:15.458Z,44.13
2024-02-08T13:04:47.139Z,42.89
2024-02-08T13:08:18.883Z,41.76
2024-02-08T13:11:51.179Z,41.38
2024-02-08T13:15:13.800Z,41.89
2024-02-08T13:18:26.156Z,41.73
2024-02-08T13:21:40.223Z,42.38
2024-02-08T13:24:57.920Z,42.97
2024-02-08T13:28:12.189Z,42.38
2024-02-08T13:31:35.471Z,43.13
2024-02-08T13:34:52.415Z,44.48
2024-02-08T13:37:59.174Z,44.22
2024-02-08T13:41:06.342Z,44.25
2024-02-08T13:44:32.654Z,44.29
2024-02-08T13:47:39.718Z,44.31
2024-02-08T13:50:58.367Z,43.69
2024-02-08T13:54:05.492Z,43.45
2024-02-08T13:57:25.982Z,43.48
2024-02-08T14:00:50.663Z,43.39
2024-02-08T14:04:22.648Z,43.22
2024-02-08T14:07:31.501Z,43.62
2024-02-08T14:10:38.529Z,44.13
2024-02-08T14:14:03.564Z,44.51
2024-02-08T14:17:27.744Z,46.04
2024-02-08T14:21:14.151Z,46.07
2024-02-08T14:25:01.942Z,46.06
2024-02-08T14:28:23.769Z,46.24
2024-02-08T14:31:49.361Z,45.75
2024-02-08T14:35:24.544Z,46.16
2024-02-08T14:38:46.571Z,46.47
2024-02-08T14:42:25.134Z,46.69
2024-02-08T14:46:02.189Z,45.89
2024-02-08T14:49:30.247Z,45.70
2024-02-08T14:52:51.247Z,45.92
2024-02-08T14:56:12.926Z,45.31
2024-02-08T14:59:35.801Z,45.04
2024-02-08T15:02:57.161Z,45.60
2024-02-08T15:06:01.975Z,45.58
2024-02-08T15:09:38.832Z,45.46
2024-02-08T15:12:58.816Z,45.65
2024-02-08T15:16:09.393Z,45.87
2024-02-08T15:19:28.103Z,45.99
2024-02-08T15:22:36.228Z,46.13
2024-02-08T15:25:46.716Z,46.27
2024-02-08T15:29:12.881Z,45.88
2024-02-08T15:32:32.503Z,45.86
2024-02-08T15:35:45.093Z,46.23
2024-02-08T15:39:02.659Z,46.27
2024-02-08T15:42:19.819Z,46.38
2024-02-08T15:45:36.449Z,46.56
2024-02-08T15:48:51.697Z,46.27
2024-02-08T15:51:59.508Z,46.45
2024-02-08T15:55:21.926Z,46.37
2024-02-08T15:58:46.697Z,46.54
2024-02-08T16:01:59.565Z,46.89
2024-02-08T16:05:16.594Z,46.99
2024-02-08T16:08:43.479Z,46.84
2024-02-08T16:12:24.498Z,47.08
2024-02-08T16:16:00.027Z,47.15
2024-02-08T16:19:25.451Z,47.35
2024-02-08T16:22:35.541Z,47.35
2024-02-08T16:25:46.996Z,47.49
2024-02-08T16:28:52.198Z,47.47
2024-02-08T16:31:56.449Z,47.69
2024-02-08T16:35:23.886Z,47.93
2024-02-08T16:38:31.675Z,47.98
2024-02-08T16:41:50.426Z,48.45
2024-02-08T16:45:26.030Z,48.90
2024-02-08T16:49:10.992Z,48.90
2024-02-08T16:52:44.110Z,49.41
2024-02-08T16:55:51.241Z,49.50
2024-02-08T16:59:10.277Z,48.90
2024-02-08T17:02:28.628Z,48.99
2024-02-08T17:05:55.484Z,49.53
2024-02-08T17:09:22.025Z,49.74
2024-02-08T17:13:12.353Z,50.19
2024-02-08T17:16:37.954Z,49.94
2024-02-08T17:20:24.205Z,50.17
2024-02-08T17:23:44.627Z,49.73
2024-02-08T17:27:01.015Z,50.00
2024-02-08T17:30:19.342Z,49.83
2024-02-08T17:33:32.231Z,50.06
2024-02-08T17:36:50.638Z,50.65
2024-02-08T17:40:22.682Z,50.59
2024-02-08T17:43:44.596Z,50.45
2024-02-08T17:46:54.313Z,50.36
2024-02-08T17:50:06.745Z,51.04
2024-02-08T17:53:27.157Z,51.10
2024-02-08T17:56:47.481Z,51.05
2024-02-08T18:00:03.015Z,51.32
2024-02-08T18:03:31.377Z,51.07
2024-02-08T18:06:45.799Z,51.99
2024-02-08T18:09:56.049Z,52.47
2024-02-08T18:13:19.816Z,52.00
2024-02-08T18:16:31.624Z,52.24
2024-02-08T18:19:43.955Z,52.20
2024-02-08T18:22:52.051Z,52.61
2024-02-08T18:26:05.588Z,53.04
2024-02-08T18:29:09.283Z,52.96
2024-02-08T18:32:20.741Z,53.18
2024-02-08T18:35:27.433Z,53.63
2024-02-08T18:38:50.820Z,53.87
2024-02-08T18:42:09.217Z,53.68
2024-02-08T18:45:29.228Z,53.16
2024-02-08T18:48:35.778Z,52.98
2024-02-08T18:52:02.875Z,53.22
2024-02-08T18:55:32.054Z,52.79
2024-02-08T18:58:44.417Z,52.77
2024-02-08T19:02:04.876Z,53.33
2024-02-08T19:05:17.537Z,53.58
2024-02-08T19:08:43.604Z,53.76
2024-02-08T19:12:17.166Z,53.78
2024-02-08T19:15:30.748Z,54.25
2024-02-08T19:18:59.638Z,54.62
2024-02-08T19:22:18.296Z,54.83
2024-02-08T19:25:37.027Z,55.60
2024-02-08T19:28:44.019Z,55.39
2024-02-08T19:31:48.079Z,55.99
2024-02-08T19:34:52.689Z,55.74
2024-02-08T19:38:05.485Z,56.94
2024-02-08T19:41:30.633Z,56.49
2024-02-08T19:44:50.419Z,57.02
2024-02-08T19:48:18.997Z,57.25
2024-02-08T19:51:27.501Z,57.71
2024-02-08T19:54:43.862Z,57.30
2024-02-08T19:57:50.676Z,57.25
2024-02-08T20:01:00.280Z,57.13
2024-02-08T20:04:25.816Z,57.53
2024-02-08T20:07:41.855Z,56.99
2024-02-08T20:10:58.857Z,57.45
2024-02-08T20:14:21.195Z,57.54
2024-02-08T20:17:40.842Z,58.06
2024-02-08T20:20:58.247Z,58.32
2024-02-08T20:24:13.181Z,58.08
2024-02-08T20:27:29.672Z,58.81
2024-02-08T20:31:01.465Z,58.58
2024-02-08T20:34:22.930Z,58.18
2024-02-08T20:37:34.299Z,58.85
2024-02-08T20:40:57.526Z,58.79
2024-02-08T20:44:24.602Z,58.12
2024-02-08T20:47:48.203Z,56.84
2024-02-08T20:51:13.133Z,57.11
2024-02-08T20:54:34.204Z,57.39
2024-02-08T20:57:54.238Z,57.97
2024-02-08T21:01:03.126Z,58.08
2024-02-08T21:04:07.129Z,58.53
2024-02-08T21:07:26.411Z,57.99
2024-02-08T21:10:32.842Z,58.72
2024-02-08T21:13:50.249Z,57.36
2024-02-08T21:17:13.267Z,58.04
2024-02-08T21:20:31.787Z,57.67
2024-02-08T21:24:01.291Z,58.02
2024-02-08T21:27:27.369Z,57.99
2024-02-08T21:30:46.316Z,58.06
2024-02-08T21:34:02.435Z,57.11
2024-02-08T21:37:22.142Z,56.74
2024-02-08T21:40:51.592Z,56.30
2024-02-08T21:44:15.838Z,56.23
2024-02-08T21:47:29.601Z,56.16
2024-02-08T21:50:55.214Z,56.56
2024-02-08T21:54:17.201Z,57.01
2024-02-08T21:57:37.205Z,58.98
2024-02-08T22:04:18.500Z,61.43
2024-02-08T22:07:34.433Z,61.95
2024-02-08T22:10:57.224Z,61.78
2024-02-08T22:14:17.188Z,62.09
2024-02-08T22:17:21.690Z,61.28
2024-02-08T22:20:29.635Z,60.50
2024-02-08T22:23:51.776Z,60.44
2024-02-08T22:27:05.067Z,60.14
2024-02-08T22:30:29.157Z,61.14
2024-02-08T22:33:54.953Z,61.58
2024-02-08T22:37:15.943Z,61.80
2024-02-08T22:40:26.871Z,62.28
2024-02-08T22:43:42.600Z,62.45
2024-02-08T22:47:10.915Z,62.21
2024-02-08T22:50:34.258Z,62.76
2024-02-08T22:53:56.849Z,63.00
2024-02-08T22:57:00.040Z,62.82
2024-02-08T23:00:23.768Z,63.40
2024-02-08T23:03:27.326Z,63.71
2024-02-08T23:06:36.679Z,63.30
2024-02-08T23:09:48.490Z,63.85
2024-02-08T23:12:54.521Z,63.74
2024-02-08T23:15:58.695Z,63.83
2024-02-08T23:19:06.373Z,63.69
2024-02-08T23:22:28.091Z,63.30
2024-02-08T23:25:43.079Z,63.51
2024-02-08T23:28:49.822Z,63.75
2024-02-08T23:31:53.209Z,63.78
2024-02-08T23:35:04.774Z,63.10
2024-02-08T23:38:13.418Z,63.65
2024-02-08T23:41:36.886Z,63.47
2024-02-08T23:45:06.269Z,63.59
2024-02-08T23:48:30.307Z,63.22
2024-02-08T23:51:49.477Z,63.74
2024-02-08T23:55:04.534Z,63.31
2024-02-08T23:58:12.389Z,63.04
